Rodessa, Louisiana
Current Conditions -  °F | °C
As of 5:01 AM on Monday 22 Dec 2014 (Local Time) from KTXK Reporting Station
Overcast Overcast  
Wind Chill: 50°   Ceiling: 800
Heat Index: 50°   Visibility: 8mi
Dew Point: 48°   Wind: 12mph
Humidity: 93%   Direction: 160°SSE
Pressure: 29.72"   Gusts: NA
Location:  32.97°N, 93.99°W
Report Text: KTXK 221101Z AUTO 16010KT 8SM BKN008 OVC013 10/09 A2972 RMK AO2 T01000089
Loading
Personal Weather Stations






























Interactive Weather Map New forecast layout! Learn more

10-Day Weather Forecast

Advertisements
Track Severe Weather on mobile